This is the latest recevied weather packets stored in our database for station/object N3WMC. If no packets are shown the sender has not sent any weather packets the latest 1 day(s).
| Time | Temp. | Humidity | Pressure | Rain* | Wind** | Luminosity | Snow |
|---|---|---|---|---|---|---|---|
| 1777981332 | 17.78° C | 65% | 1009.5 hPa | 0 mm | 0.89 m/s, 280° | 84 W/m² | - |
| 1777981029 | 17.78° C | 66% | 1009.5 hPa | 0 mm | 0.45 m/s, 328° | 49 W/m² | - |
| 1777980726 | 17.78° C | 66% | 1009.5 hPa | 0 mm | 1.79 m/s, 276° | 54 W/m² | - |
| 1777980422 | 17.22° C | 67% | 1009.6 hPa | 0 mm | 0.89 m/s, 296° | 58 W/m² | - |
| 1777980120 | 17.22° C | 67% | 1009.4 hPa | 0 mm | 1.34 m/s, 280° | 44 W/m² | - |
| 1777979819 | 16.67° C | 69% | 1009.6 hPa | 0 mm | 0.45 m/s, 322° | 40 W/m² | - |
| 1777979515 | 17.22° C | 69% | 1009.3 hPa | 0 mm | 1.34 m/s, 312° | 27 W/m² | - |
| 1777979211 | 17.22° C | 69% | 1009.3 hPa | 0 mm | 1.34 m/s, 273° | 20 W/m² | - |
| 1777978909 | 17.22° C | 69% | 1009.3 hPa | 0 mm | 0.89 m/s, 313° | 17 W/m² | - |
| 1777978606 | 17.22° C | 70% | 1009.3 hPa | 1.27 mm | 0.45 m/s, 332° | 14 W/m² | - |
| 1777978301 | 17.22° C | 69% | 1009 hPa | 1.27 mm | 0.45 m/s, 322° | 10 W/m² | - |
| 1777977999 | 16.67° C | 70% | 1009 hPa | 0 mm | 1.34 m/s, 307° | 22 W/m² | - |
| 1777977696 | 16.67° C | 71% | 1009.3 hPa | 0 mm | 0.45 m/s, 319° | 15 W/m² | - |
| 1777977392 | 16.67° C | 72% | 1008.9 hPa | 0 mm | 0.45 m/s, 273° | 10 W/m² | - |
| 1777977090 | 16.67° C | 72% | 1008.8 hPa | 0 mm | 0.89 m/s, 292° | 7 W/m² | - |
| 1777976787 | 16.11° C | 74% | 1008.6 hPa | 0 mm | 0.45 m/s, 337° | 5 W/m² | - |
| 1777976485 | 16.11° C | 74% | 1008.7 hPa | 0 mm | 0.45 m/s, 316° | 3 W/m² | - |
| 1777976183 | 16.11° C | 74% | 1008.8 hPa | 0 mm | 1.34 m/s, 219° | 1 W/m² | - |
| 1777975879 | 16.11° C | 74% | 1008.7 hPa | 0 mm | 0 m/s | 1 W/m² | - |
| 1777975576 | 16.11° C | 76% | 1008.6 hPa | 0 mm | 0 m/s | 1 W/m² | - |
| 1777975273 | 16.11° C | 74% | 1008.5 hPa | 0 mm | 0.45 m/s, 326° | 0 W/m² | - |
| 1777974969 | 16.11° C | 73% | 1008.6 hPa | 0 mm | 0.45 m/s, 337° | 0 W/m² | - |
| 1777974665 | 16.11° C | 73% | 1008.5 hPa | 0 mm | 0.89 m/s, 317° | 0 W/m² | - |
| 1777974362 | 16.11° C | 74% | 1008.5 hPa | 0 mm | 0.45 m/s, 337° | 0 W/m² | - |
| 1777974058 | 16.11° C | 74% | 1008.4 hPa | 0 mm | 0.45 m/s, 315° | 0 W/m² | - |
* Rain latest hour (hover to see other rain measurements)
** Current wind speed in m/s (hover to see current wind gust speed)